Time;durP1;ratioP1;P1;durP2;ratioP2;P2;SDS_P1;SDS_P2;PMS_P1;PMS_P2;Temp;Humidity;BMP_temperature;BMP_pressure;BME280_temperature;BME280_humidity;BME280_pressure;Samples;Min_cycle;Max_cycle;Signal;HPM_P1;HPM_P2
2023/05/29 00:01:21;;;;;;;35.35;19.02;;;;;;;;;;4977125;28;20498;-84
2023/05/29 00:03:46;;;;;;;18.00;10.77;;;;;;;;;;4974694;28;20039;-83
2023/05/29 00:06:13;;;;;;;15.52;10.02;;;;;;;;;;4977646;28;20023;-82
2023/05/29 00:08:38;;;;;;;15.27;9.70;;;;;;;;;;4978156;28;20031;-85
2023/05/29 00:11:04;;;;;;;13.63;6.97;;;;;;;;;;4978428;28;20046;-85
2023/05/29 00:13:29;;;;;;;17.02;6.05;;;;;;;;;;4975721;28;20484;-84
2023/05/29 00:15:55;;;;;;;16.27;6.00;;;;;;;;;;4978516;28;20221;-84
2023/05/29 00:18:20;;;;;;;8.93;5.28;;;;;;;;;;4977769;28;20062;-83
2023/05/29 00:20:46;;;;;;;9.63;5.78;;;;;;;;;;4978838;28;20109;-82
2023/05/29 00:23:11;;;;;;;11.00;5.10;;;;;;;;;;4967189;28;20461;-83
2023/05/29 00:25:36;;;;;;;13.93;5.93;;;;;;;;;;4977948;28;20516;-84
2023/05/29 00:28:01;;;;;;;10.98;5.55;;;;;;;;;;4976717;28;20105;-84
2023/05/29 00:30:27;;;;;;;11.20;5.88;;;;;;;;;;4973608;28;20449;-84
2023/05/29 00:32:52;;;;;;;11.18;5.90;;;;;;;;;;4979310;28;20023;-85
2023/05/29 00:35:18;;;;;;;9.13;5.57;;;;;;;;;;4978220;28;20042;-85
2023/05/29 00:37:43;;;;;;;15.00;7.47;;;;;;;;;;4977468;28;20035;-83
2023/05/29 00:40:09;;;;;;;12.38;8.48;;;;;;;;;;4978541;28;20035;-83
2023/05/29 00:42:35;;;;;;;17.27;9.18;;;;;;;;;;4976907;28;20050;-84
2023/05/29 00:45:00;;;;;;;15.88;8.20;;;;;;;;;;4978260;28;20027;-85
2023/05/29 00:47:25;;;;;;;14.82;8.13;;;;;;;;;;4975327;28;20382;-84
2023/05/29 00:49:51;;;;;;;12.98;8.18;;;;;;;;;;4978449;28;20066;-82
2023/05/29 00:52:18;;;;;;;13.50;7.95;;;;;;;;;;4976748;28;20050;-81
2023/05/29 00:54:45;;;;;;;15.50;8.00;;;;;;;;;;4976292;28;20494;-84
2023/05/29 00:57:12;;;;;;;13.80;7.70;;;;;;;;;;4978034;28;20081;-84
2023/05/29 00:59:39;;;;;;;15.90;8.30;;;;;;;;;;4976754;28;20050;-84
2023/05/29 01:02:04;;;;;;;12.48;6.97;;;;;;;;;;4977802;28;20027;-83
2023/05/29 01:04:33;;;;;;;16.67;7.13;;;;;;;;;;4977880;28;20038;-85
2023/05/29 01:06:58;;;;;;;13.15;6.28;;;;;;;;;;4977463;28;20040;-84
2023/05/29 01:09:24;;;;;;;13.82;6.32;;;;;;;;;;4977313;28;20525;-84
2023/05/29 01:12:10;;;;;;;13.57;6.43;;;;;;;;;;4977034;28;20029;-83
2023/05/29 01:14:49;;;;;;;10.38;6.85;;;;;;;;;;4976478;28;20046;-85
2023/05/29 01:17:39;;;;;;;10.05;5.65;;;;;;;;;;4973360;28;20098;-84
2023/05/29 01:20:13;;;;;;;13.73;5.88;;;;;;;;;;4975751;28;20031;-84
2023/05/29 01:23:14;;;;;;;31.30;7.47;;;;;;;;;;4981830;28;20580;-84
2023/05/29 01:25:49;;;;;;;14.48;7.00;;;;;;;;;;4981576;28;20572;-84
2023/05/29 01:28:18;;;;;;;14.00;6.70;;;;;;;;;;4979097;28;20034;-85
2023/05/29 01:30:43;;;;;;;14.40;7.47;;;;;;;;;;4984109;28;20042;-83
2023/05/29 01:33:09;;;;;;;11.13;6.95;;;;;;;;;;4982113;28;20078;-86
2023/05/29 01:35:35;;;;;;;9.88;5.97;;;;;;;;;;4981779;28;20029;-80
2023/05/29 01:38:00;;;;;;;12.05;6.32;;;;;;;;;;4984668;28;20515;-85
2023/05/29 01:40:26;;;;;;;15.10;7.70;;;;;;;;;;4987811;28;20113;-85
2023/05/29 01:42:52;;;;;;;11.82;6.65;;;;;;;;;;4981147;28;20031;-82
2023/05/29 01:45:17;;;;;;;14.40;7.03;;;;;;;;;;4981111;28;20019;-83
2023/05/29 01:47:43;;;;;;;20.42;6.78;;;;;;;;;;4979891;28;20058;-84
2023/05/29 01:50:10;;;;;;;18.45;7.85;;;;;;;;;;4981853;28;20054;-85
2023/05/29 01:52:35;;;;;;;12.52;7.68;;;;;;;;;;4980443;28;20050;-84
2023/05/29 01:55:01;;;;;;;17.73;8.15;;;;;;;;;;4981478;28;20117;-85
2023/05/29 01:57:27;;;;;;;13.15;7.13;;;;;;;;;;4977954;28;20057;-84
2023/05/29 01:59:54;;;;;;;14.73;8.68;;;;;;;;;;4974322;28;20023;-85
2023/05/29 02:02:22;;;;;;;13.95;7.53;;;;;;;;;;4981253;28;20026;-84
2023/05/29 02:04:47;;;;;;;16.55;7.55;;;;;;;;;;4980526;28;20104;-86
2023/05/29 02:07:15;;;;;;;14.00;7.65;;;;;;;;;;4976700;28;20045;-84
2023/05/29 02:09:41;;;;;;;11.90;6.68;;;;;;;;;;4978141;28;20035;-85
2023/05/29 02:12:07;;;;;;;16.00;6.18;;;;;;;;;;4980012;28;20026;-81
2023/05/29 02:14:32;;;;;;;12.93;5.53;;;;;;;;;;4980199;28;20030;-84
2023/05/29 02:16:57;;;;;;;10.60;6.10;;;;;;;;;;4978986;28;20031;-84
2023/05/29 02:19:25;;;;;;;10.68;5.25;;;;;;;;;;4980001;28;20043;-84
2023/05/29 02:21:50;;;;;;;15.48;6.30;;;;;;;;;;4978222;28;20117;-84
2023/05/29 02:24:16;;;;;;;9.32;5.65;;;;;;;;;;4978993;28;20505;-84
2023/05/29 02:26:42;;;;;;;12.70;6.35;;;;;;;;;;4980462;28;20385;-84
2023/05/29 02:29:07;;;;;;;10.55;5.63;;;;;;;;;;4976776;28;20043;-85
2023/05/29 02:31:33;;;;;;;15.48;6.00;;;;;;;;;;4976715;28;20156;-84
2023/05/29 02:33:58;;;;;;;9.63;5.93;;;;;;;;;;4977931;28;20066;-85
2023/05/29 02:36:24;;;;;;;17.33;5.97;;;;;;;;;;4978963;28;20046;-84
2023/05/29 02:38:49;;;;;;;13.07;5.85;;;;;;;;;;4978859;28;20031;-83
2023/05/29 02:41:15;;;;;;;14.82;5.93;;;;;;;;;;4978719;28;20037;-83
2023/05/29 02:43:40;;;;;;;15.88;7.03;;;;;;;;;;4980047;28;20051;-83
2023/05/29 02:46:05;;;;;;;9.85;5.72;;;;;;;;;;4979750;28;20038;-84
2023/05/29 02:48:31;;;;;;;15.50;6.63;;;;;;;;;;4978492;28;20042;-84
2023/05/29 02:50:56;;;;;;;9.98;6.15;;;;;;;;;;4980896;28;20031;-83
2023/05/29 02:53:22;;;;;;;11.82;6.75;;;;;;;;;;4989747;28;20035;-85
2023/05/29 02:55:48;;;;;;;18.15;10.18;;;;;;;;;;4978463;28;20104;-83
2023/05/29 02:58:16;;;;;;;20.92;10.82;;;;;;;;;;4978006;28;20042;-84
2023/05/29 03:00:41;;;;;;;11.70;6.95;;;;;;;;;;4971619;28;20050;-84
2023/05/29 03:03:06;;;;;;;12.77;7.10;;;;;;;;;;4978045;28;20094;-84
2023/05/29 03:05:32;;;;;;;14.05;5.72;;;;;;;;;;4978802;28;20074;-82
2023/05/29 03:07:57;;;;;;;16.20;5.70;;;;;;;;;;4978619;28;20065;-82
2023/05/29 03:10:22;;;;;;;12.52;5.68;;;;;;;;;;4978848;28;20529;-82
2023/05/29 03:12:48;;;;;;;16.70;6.18;;;;;;;;;;4978438;28;20054;-84
2023/05/29 03:15:14;;;;;;;11.75;4.88;;;;;;;;;;4978916;28;20027;-83
2023/05/29 03:17:39;;;;;;;14.45;5.97;;;;;;;;;;4976427;28;20126;-85
2023/05/29 03:20:06;;;;;;;15.30;6.30;;;;;;;;;;4977870;28;20039;-84
2023/05/29 03:22:32;;;;;;;17.15;7.03;;;;;;;;;;4978708;28;20034;-83
2023/05/29 03:24:57;;;;;;;13.35;7.13;;;;;;;;;;4971764;28;20097;-85
2023/05/29 03:27:23;;;;;;;14.55;6.85;;;;;;;;;;4978384;28;20046;-81
2023/05/29 03:29:48;;;;;;;13.05;6.07;;;;;;;;;;4994042;28;20113;-85
2023/05/29 03:32:14;;;;;;;17.17;7.13;;;;;;;;;;4978264;28;20267;-83
2023/05/29 03:34:39;;;;;;;17.30;7.18;;;;;;;;;;4979302;28;20102;-83
2023/05/29 03:37:05;;;;;;;12.48;6.55;;;;;;;;;;4993398;28;20046;-84
2023/05/29 03:39:30;;;;;;;13.20;6.57;;;;;;;;;;4969986;28;20454;-83
2023/05/29 03:41:56;;;;;;;13.13;5.57;;;;;;;;;;4978320;28;20027;-82
2023/05/29 03:44:21;;;;;;;13.13;5.65;;;;;;;;;;4977717;28;20512;-84
2023/05/29 03:46:46;;;;;;;9.43;5.80;;;;;;;;;;4976450;28;20049;-82
2023/05/29 03:49:12;;;;;;;10.63;6.18;;;;;;;;;;4978000;28;20035;-84
2023/05/29 03:51:37;;;;;;;15.02;6.57;;;;;;;;;;4976985;28;20042;-85
2023/05/29 03:54:03;;;;;;;10.70;6.47;;;;;;;;;;4992918;28;20029;-84
2023/05/29 03:56:28;;;;;;;10.35;6.55;;;;;;;;;;4978565;28;20107;-83
2023/05/29 03:58:54;;;;;;;12.82;7.60;;;;;;;;;;4975879;28;20050;-84
2023/05/29 04:01:20;;;;;;;11.40;5.60;;;;;;;;;;4976515;28;20027;-84
2023/05/29 04:03:46;;;;;;;9.55;5.43;;;;;;;;;;4978210;28;20039;-85
2023/05/29 04:06:11;;;;;;;14.25;6.43;;;;;;;;;;4977343;28;20030;-84
2023/05/29 04:08:36;;;;;;;10.43;5.85;;;;;;;;;;4978221;28;20483;-85
2023/05/29 04:11:03;;;;;;;11.18;5.65;;;;;;;;;;4978038;28;20043;-84
2023/05/29 04:13:29;;;;;;;8.88;5.65;;;;;;;;;;4978520;28;20106;-85
2023/05/29 04:15:54;;;;;;;16.60;6.22;;;;;;;;;;4976663;28;20466;-82
2023/05/29 04:18:20;;;;;;;11.98;6.22;;;;;;;;;;4978489;28;20018;-82
2023/05/29 04:20:47;;;;;;;9.30;5.32;;;;;;;;;;4977336;28;20031;-85
2023/05/29 04:23:12;;;;;;;9.95;5.93;;;;;;;;;;4979108;28;20041;-85
2023/05/29 04:25:38;;;;;;;11.20;5.88;;;;;;;;;;4971481;28;20031;-83
2023/05/29 04:28:03;;;;;;;10.30;5.40;;;;;;;;;;4978460;28;20089;-83
2023/05/29 04:30:28;;;;;;;11.18;5.82;;;;;;;;;;4971171;28;20106;-85
2023/05/29 04:32:54;;;;;;;10.52;5.93;;;;;;;;;;4978463;28;20026;-82
2023/05/29 04:35:19;;;;;;;13.18;6.78;;;;;;;;;;4977590;28;20033;-83
2023/05/29 04:37:45;;;;;;;8.55;5.72;;;;;;;;;;4978547;28;20528;-83
2023/05/29 04:40:11;;;;;;;13.80;7.07;;;;;;;;;;4978652;28;20089;-82
2023/05/29 04:42:37;;;;;;;10.40;5.30;;;;;;;;;;4977766;28;20042;-82
2023/05/29 04:45:06;;;;;;;8.40;4.90;;;;;;;;;;4977454;28;20023;-84
2023/05/29 04:47:36;;;;;;;13.60;5.65;;;;;;;;;;4976539;28;20037;-80
2023/05/29 04:50:02;;;;;;;12.23;5.45;;;;;;;;;;4977849;28;20599;-80
2023/05/29 04:52:27;;;;;;;14.70;5.97;;;;;;;;;;4977900;28;20046;-84
2023/05/29 04:54:54;;;;;;;14.30;5.95;;;;;;;;;;4980476;28;20039;-86
2023/05/29 04:57:20;;;;;;;8.77;5.25;;;;;;;;;;4980539;28;20042;-85
2023/05/29 04:59:45;;;;;;;9.68;5.78;;;;;;;;;;4981873;28;20030;-85
2023/05/29 05:02:10;;;;;;;10.40;5.95;;;;;;;;;;4981796;28;20053;-85
2023/05/29 05:04:36;;;;;;;12.80;6.10;;;;;;;;;;4981972;28;20777;-83
2023/05/29 05:07:03;;;;;;;10.88;6.00;;;;;;;;;;4980510;28;20094;-82
2023/05/29 05:09:28;;;;;;;11.32;6.13;;;;;;;;;;4980249;28;20057;-83
2023/05/29 05:11:54;;;;;;;10.55;5.50;;;;;;;;;;4982463;28;20026;-84
2023/05/29 05:14:20;;;;;;;12.20;5.70;;;;;;;;;;4980788;28;20027;-83
2023/05/29 05:16:45;;;;;;;16.20;5.72;;;;;;;;;;4982330;28;20038;-81
2023/05/29 05:19:10;;;;;;;15.90;6.20;;;;;;;;;;4980929;28;20027;-81
2023/05/29 05:21:35;;;;;;;10.43;5.22;;;;;;;;;;4980852;28;20081;-84
2023/05/29 05:24:01;;;;;;;7.53;5.03;;;;;;;;;;4982724;28;20505;-83
2023/05/29 05:26:26;;;;;;;14.15;5.50;;;;;;;;;;4981475;28;20042;-84
2023/05/29 05:28:52;;;;;;;9.65;5.00;;;;;;;;;;4979964;28;20059;-83
2023/05/29 05:31:17;;;;;;;9.85;5.15;;;;;;;;;;4974950;28;20772;-85
2023/05/29 05:33:42;;;;;;;9.50;4.68;;;;;;;;;;4981541;28;20110;-85
2023/05/29 05:36:08;;;;;;;11.07;5.25;;;;;;;;;;4981018;28;20472;-83
2023/05/29 05:38:33;;;;;;;11.68;5.47;;;;;;;;;;4981479;28;20039;-84
2023/05/29 05:40:58;;;;;;;13.75;5.25;;;;;;;;;;4980123;28;20470;-83
2023/05/29 05:43:26;;;;;;;10.27;5.35;;;;;;;;;;4979802;28;20382;-83
2023/05/29 05:45:51;;;;;;;10.90;5.50;;;;;;;;;;4979922;28;20041;-85
2023/05/29 05:48:16;;;;;;;8.98;5.13;;;;;;;;;;4979672;28;20022;-83
2023/05/29 05:50:42;;;;;;;11.40;5.43;;;;;;;;;;4981584;28;20023;-84
2023/05/29 05:53:07;;;;;;;10.48;4.93;;;;;;;;;;4981125;28;20401;-82
2023/05/29 05:55:32;;;;;;;9.63;5.00;;;;;;;;;;4981386;28;20039;-83
2023/05/29 05:57:58;;;;;;;9.57;4.70;;;;;;;;;;4980812;28;20521;-83
2023/05/29 06:00:23;;;;;;;12.05;4.75;;;;;;;;;;4980711;28;20073;-83
2023/05/29 06:02:49;;;;;;;11.38;5.20;;;;;;;;;;4980391;28;20030;-81
2023/05/29 06:05:14;;;;;;;11.10;4.72;;;;;;;;;;4978241;28;20049;-85
2023/05/29 06:07:40;;;;;;;12.48;5.00;;;;;;;;;;4980487;28;20409;-84
2023/05/29 06:10:06;;;;;;;9.13;5.05;;;;;;;;;;4978411;28;20046;-82
2023/05/29 06:12:31;;;;;;;14.05;5.40;;;;;;;;;;4980026;28;20050;-84
2023/05/29 06:14:56;;;;;;;7.90;5.03;;;;;;;;;;4977550;28;20040;-84
2023/05/29 06:17:23;;;;;;;8.23;5.10;;;;;;;;;;4979458;28;20110;-83
2023/05/29 06:19:48;;;;;;;9.57;5.05;;;;;;;;;;4979601;28;20035;-83
2023/05/29 06:22:15;;;;;;;8.30;4.78;;;;;;;;;;4979897;28;20035;-83
2023/05/29 06:24:40;;;;;;;7.75;5.47;;;;;;;;;;4979760;28;20046;-82
2023/05/29 06:27:06;;;;;;;10.65;4.68;;;;;;;;;;4979294;28;20022;-83
2023/05/29 06:29:32;;;;;;;8.48;4.97;;;;;;;;;;4978121;28;20054;-81
2023/05/29 06:31:57;;;;;;;7.18;5.15;;;;;;;;;;4980452;28;20130;-81
2023/05/29 06:34:22;;;;;;;9.23;5.38;;;;;;;;;;4982233;28;20098;-83
2023/05/29 06:36:47;;;;;;;10.02;4.93;;;;;;;;;;4979672;28;20101;-83
2023/05/29 06:39:13;;;;;;;13.73;4.95;;;;;;;;;;4988644;28;20537;-84
2023/05/29 06:41:39;;;;;;;7.18;4.57;;;;;;;;;;4982274;28;20035;-82
2023/05/29 06:44:04;;;;;;;10.27;4.75;;;;;;;;;;4984382;28;20050;-83
2023/05/29 06:46:30;;;;;;;7.03;4.63;;;;;;;;;;4977136;28;20031;-83
2023/05/29 06:48:55;;;;;;;6.05;4.18;;;;;;;;;;4990543;28;20042;-83
2023/05/29 06:51:21;;;;;;;5.70;4.10;;;;;;;;;;4987687;28;20026;-83
2023/05/29 06:53:46;;;;;;;9.85;4.25;;;;;;;;;;4984388;28;20035;-85
2023/05/29 06:56:11;;;;;;;9.10;3.92;;;;;;;;;;4978088;28;20207;-82
2023/05/29 06:58:37;;;;;;;8.57;3.55;;;;;;;;;;4978550;28;20093;-84
2023/05/29 07:01:02;;;;;;;6.32;3.38;;;;;;;;;;4978135;28;20030;-85
2023/05/29 07:03:28;;;;;;;4.82;3.40;;;;;;;;;;4979024;28;20042;-83
2023/05/29 07:05:53;;;;;;;6.25;3.95;;;;;;;;;;4977922;28;20034;-82
2023/05/29 07:08:19;;;;;;;13.43;4.00;;;;;;;;;;4978230;28;20099;-82
2023/05/29 07:10:44;;;;;;;6.63;3.28;;;;;;;;;;4977999;28;20049;-84
2023/05/29 07:13:10;;;;;;;6.05;3.38;;;;;;;;;;4977676;28;20039;-83
2023/05/29 07:15:37;;;;;;;4.72;3.33;;;;;;;;;;4977795;28;20042;-82
2023/05/29 07:18:02;;;;;;;6.40;3.70;;;;;;;;;;4973690;28;20023;-82
2023/05/29 07:20:27;;;;;;;10.43;3.78;;;;;;;;;;4979010;28;20552;-84
2023/05/29 07:22:53;;;;;;;7.57;3.25;;;;;;;;;;4977863;28;20070;-83
2023/05/29 07:25:18;;;;;;;8.20;3.40;;;;;;;;;;4977984;28;20405;-84
2023/05/29 07:27:43;;;;;;;6.40;3.80;;;;;;;;;;4977253;28;20125;-82
2023/05/29 07:30:09;;;;;;;6.43;3.92;;;;;;;;;;4978234;28;20077;-83
2023/05/29 07:32:35;;;;;;;6.25;3.63;;;;;;;;;;4979532;28;20039;-81
2023/05/29 07:35:00;;;;;;;4.93;3.65;;;;;;;;;;4980686;28;20086;-83
2023/05/29 07:37:26;;;;;;;7.80;3.78;;;;;;;;;;4978029;28;20039;-83
2023/05/29 07:39:51;;;;;;;5.95;3.70;;;;;;;;;;4981572;28;20031;-83
2023/05/29 07:42:16;;;;;;;6.45;3.85;;;;;;;;;;4977457;28;20050;-82
2023/05/29 07:44:42;;;;;;;6.60;3.78;;;;;;;;;;4975772;28;20039;-83
2023/05/29 07:47:08;;;;;;;5.30;3.55;;;;;;;;;;4976222;28;20050;-83
2023/05/29 07:49:35;;;;;;;5.20;3.90;;;;;;;;;;4976831;28;20046;-84
2023/05/29 07:52:01;;;;;;;7.32;4.00;;;;;;;;;;4976596;28;20489;-85
2023/05/29 07:54:26;;;;;;;8.93;3.45;;;;;;;;;;4975971;28;20049;-84
2023/05/29 07:56:51;;;;;;;5.90;3.95;;;;;;;;;;4977216;28;20451;-84
2023/05/29 07:59:17;;;;;;;5.65;3.53;;;;;;;;;;4977274;28;20062;-84
2023/05/29 08:01:43;;;;;;;7.68;3.60;;;;;;;;;;4976661;28;20075;-85
2023/05/29 08:04:08;;;;;;;5.53;3.60;;;;;;;;;;4991989;28;20093;-84
2023/05/29 08:06:34;;;;;;;5.78;3.83;;;;;;;;;;4977672;28;20134;-84
2023/05/29 08:08:59;;;;;;;8.88;4.38;;;;;;;;;;4979870;28;20043;-82
2023/05/29 08:11:25;;;;;;;6.55;3.10;;;;;;;;;;4978767;28;20066;-81
2023/05/29 08:13:50;;;;;;;7.90;3.85;;;;;;;;;;4975919;28;20063;-81
2023/05/29 08:16:16;;;;;;;5.47;3.47;;;;;;;;;;4977280;28;20605;-83
2023/05/29 08:18:42;;;;;;;7.43;3.80;;;;;;;;;;4976547;28;20046;-84
2023/05/29 08:21:09;;;;;;;5.88;3.78;;;;;;;;;;4977071;28;20034;-82
2023/05/29 08:23:34;;;;;;;5.63;3.70;;;;;;;;;;4976910;28;20034;-84
2023/05/29 08:26:00;;;;;;;6.55;3.78;;;;;;;;;;4974229;28;20093;-83
2023/05/29 08:28:26;;;;;;;7.25;4.35;;;;;;;;;;4972178;28;20514;-83
2023/05/29 08:30:52;;;;;;;8.68;3.92;;;;;;;;;;4979622;28;20039;-82
2023/05/29 08:33:17;;;;;;;6.35;3.78;;;;;;;;;;4978347;28;20069;-82
2023/05/29 08:35:43;;;;;;;9.18;3.53;;;;;;;;;;4975171;28;20054;-84
2023/05/29 08:38:08;;;;;;;7.00;3.95;;;;;;;;;;4979066;28;20035;-83
2023/05/29 08:40:33;;;;;;;6.10;3.47;;;;;;;;;;4982025;28;20098;-82
2023/05/29 08:43:14;;;;;;;6.85;3.40;;;;;;;;;;4984789;28;20522;-82
2023/05/29 08:45:42;;;;;;;5.85;4.03;;;;;;;;;;4979539;28;20038;-81
2023/05/29 08:48:10;;;;;;;7.15;3.88;;;;;;;;;;4978510;28;20544;-83
2023/05/29 08:50:36;;;;;;;4.95;3.60;;;;;;;;;;4979688;28;20519;-82
2023/05/29 08:53:01;;;;;;;5.18;3.17;;;;;;;;;;4980106;28;20139;-81
2023/05/29 08:55:27;;;;;;;6.75;3.67;;;;;;;;;;4969852;28;20062;-79
2023/05/29 08:57:52;;;;;;;5.57;3.80;;;;;;;;;;4972475;28;20071;-82
2023/05/29 09:00:20;;;;;;;5.03;3.63;;;;;;;;;;4975815;28;20033;-81
2023/05/29 09:02:49;;;;;;;9.35;3.60;;;;;;;;;;4978370;28;20030;-81
2023/05/29 09:05:14;;;;;;;5.93;3.53;;;;;;;;;;4979723;28;20142;-83
2023/05/29 09:07:40;;;;;;;7.47;4.00;;;;;;;;;;4979692;28;20509;-83
2023/05/29 09:10:09;;;;;;;10.07;3.80;;;;;;;;;;4978684;28;20045;-82
2023/05/29 09:12:35;;;;;;;9.00;3.90;;;;;;;;;;4979921;28;20421;-82
2023/05/29 09:15:01;;;;;;;7.68;3.88;;;;;;;;;;4978020;28;20027;-81
2023/05/29 09:17:33;;;;;;;7.82;4.50;;;;;;;;;;4979356;28;20066;-82
2023/05/29 09:19:58;;;;;;;5.65;4.05;;;;;;;;;;4978029;28;20035;-82
2023/05/29 09:22:24;;;;;;;6.45;4.45;;;;;;;;;;4979980;28;20406;-82
2023/05/29 09:24:50;;;;;;;7.88;4.80;;;;;;;;;;4981612;28;20053;-83
2023/05/29 09:27:17;;;;;;;7.05;3.80;;;;;;;;;;4982982;28;20026;-84
2023/05/29 09:29:45;;;;;;;8.80;4.05;;;;;;;;;;4979032;28;20055;-83
2023/05/29 09:32:12;;;;;;;8.77;4.40;;;;;;;;;;4979437;28;20122;-82
2023/05/29 09:34:39;;;;;;;7.40;3.97;;;;;;;;;;4978546;28;20046;-83
2023/05/29 09:37:10;;;;;;;5.30;4.00;;;;;;;;;;4978449;28;20034;-83
2023/05/29 09:39:45;;;;;;;9.38;4.40;;;;;;;;;;4977289;28;20039;-82
2023/05/29 09:42:11;;;;;;;8.38;4.18;;;;;;;;;;4978878;28;20027;-82
2023/05/29 09:44:36;;;;;;;7.70;4.10;;;;;;;;;;4978329;28;20029;-82
2023/05/29 09:47:01;;;;;;;7.00;4.15;;;;;;;;;;4974344;28;20031;-83
2023/05/29 09:49:27;;;;;;;9.52;3.97;;;;;;;;;;4978268;28;20046;-82
2023/05/29 09:51:59;;;;;;;10.85;4.28;;;;;;;;;;4977084;28;20031;-81
2023/05/29 09:54:29;;;;;;;7.28;4.05;;;;;;;;;;4975286;28;20043;-80
2023/05/29 09:56:56;;;;;;;9.35;4.30;;;;;;;;;;4977857;28;20027;-80
2023/05/29 09:59:23;;;;;;;5.70;4.32;;;;;;;;;;4976508;28;20545;-82
2023/05/29 10:01:49;;;;;;;9.30;4.82;;;;;;;;;;4978703;28;20058;-83
2023/05/29 10:04:14;;;;;;;9.95;4.05;;;;;;;;;;4978060;28;20031;-80
2023/05/29 10:06:49;;;;;;;6.13;3.95;;;;;;;;;;4978390;28;20039;-82
2023/05/29 10:09:17;;;;;;;4.78;3.45;;;;;;;;;;4972794;28;20077;-83
2023/05/29 10:11:44;;;;;;;8.18;4.75;;;;;;;;;;4982187;28;20074;-84
2023/05/29 10:14:14;;;;;;;5.65;3.90;;;;;;;;;;4976186;28;20066;-83
2023/05/29 10:16:43;;;;;;;7.78;4.50;;;;;;;;;;4978234;28;20046;-82
2023/05/29 10:19:12;;;;;;;6.32;3.90;;;;;;;;;;4977155;28;20043;-81
2023/05/29 10:21:40;;;;;;;6.45;4.13;;;;;;;;;;4978770;28;20125;-84
2023/05/29 10:24:07;;;;;;;10.60;3.80;;;;;;;;;;4978603;28;20077;-84
2023/05/29 10:26:36;;;;;;;7.63;4.20;;;;;;;;;;4979374;28;20035;-83
2023/05/29 10:29:12;;;;;;;8.15;3.72;;;;;;;;;;4977930;28;20047;-84
2023/05/29 10:32:00;;;;;;;8.98;4.35;;;;;;;;;;4973947;28;20043;-83
2023/05/29 10:34:33;;;;;;;9.73;4.20;;;;;;;;;;4976060;28;20058;-84
2023/05/29 10:37:09;;;;;;;9.10;4.15;;;;;;;;;;4974759;28;20033;-80
2023/05/29 10:39:34;;;;;;;11.30;4.25;;;;;;;;;;4977062;28;20041;-79
2023/05/29 10:42:00;;;;;;;7.65;4.43;;;;;;;;;;4977188;28;20027;-81
2023/05/29 10:44:31;;;;;;;8.20;4.30;;;;;;;;;;4976899;28;20051;-80
2023/05/29 10:47:00;;;;;;;5.88;4.35;;;;;;;;;;4977465;28;20039;-79
2023/05/29 10:49:25;;;;;;;8.02;4.68;;;;;;;;;;4976769;28;20035;-81
2023/05/29 10:51:51;;;;;;;7.07;4.15;;;;;;;;;;4974880;28;20042;-80
2023/05/29 10:54:21;;;;;;;10.32;4.28;;;;;;;;;;4976202;28;20026;-81
2023/05/29 10:56:56;;;;;;;8.75;4.20;;;;;;;;;;4977186;28;20026;-81
2023/05/29 10:59:26;;;;;;;13.95;4.13;;;;;;;;;;4978538;28;20041;-81
2023/05/29 11:01:53;;;;;;;5.57;3.70;;;;;;;;;;4978783;28;20039;-81
2023/05/29 11:04:21;;;;;;;7.38;3.92;;;;;;;;;;4977590;28;20035;-80
2023/05/29 11:06:47;;;;;;;6.13;3.58;;;;;;;;;;4973145;28;20460;-80
2023/05/29 11:09:34;;;;;;;9.13;4.63;;;;;;;;;;4978942;28;20181;-81
2023/05/29 11:12:23;;;;;;;6.68;4.15;;;;;;;;;;4978219;28;20038;-81
2023/05/29 11:15:05;;;;;;;6.45;4.43;;;;;;;;;;4979771;28;20386;-81
2023/05/29 11:17:53;;;;;;;5.90;3.55;;;;;;;;;;4975873;28;20042;-80
2023/05/29 11:20:28;;;;;;;9.68;4.00;;;;;;;;;;4976288;28;20039;-80
2023/05/29 11:23:00;;;;;;;7.63;4.15;;;;;;;;;;4978748;28;20035;-81
2023/05/29 11:25:27;;;;;;;8.85;4.25;;;;;;;;;;4978061;28;20572;-81
2023/05/29 11:27:52;;;;;;;6.75;4.10;;;;;;;;;;4975223;28;20177;-82
2023/05/29 11:30:21;;;;;;;6.13;4.20;;;;;;;;;;4982760;28;20042;-80
2023/05/29 11:32:47;;;;;;;7.30;3.67;;;;;;;;;;4979502;28;20035;-81
2023/05/29 11:35:13;;;;;;;7.10;3.95;;;;;;;;;;4978082;28;20054;-81
2023/05/29 11:37:42;;;;;;;7.20;3.63;;;;;;;;;;4978255;28;20351;-81
2023/05/29 11:40:09;;;;;;;6.47;4.00;;;;;;;;;;4978028;28;20055;-80
2023/05/29 11:42:35;;;;;;;5.93;3.83;;;;;;;;;;4977948;28;20070;-83
2023/05/29 11:45:14;;;;;;;7.85;3.97;;;;;;;;;;4978825;28;20501;-80
2023/05/29 11:48:07;;;;;;;5.68;4.28;;;;;;;;;;4972447;28;20294;-82
2023/05/29 11:50:36;;;;;;;5.47;4.13;;;;;;;;;;4980005;28;20043;-80
2023/05/29 11:53:01;;;;;;;6.90;4.70;;;;;;;;;;4977022;28;20039;-77
2023/05/29 11:55:28;;;;;;;5.45;3.70;;;;;;;;;;4978670;28;20034;-80
2023/05/29 11:58:02;;;;;;;6.97;4.07;;;;;;;;;;4978383;28;20045;-81
2023/05/29 12:00:32;;;;;;;6.85;3.90;;;;;;;;;;4969310;28;20041;-81
2023/05/29 12:03:03;;;;;;;7.47;4.18;;;;;;;;;;4979379;28;20098;-79
2023/05/29 12:05:29;;;;;;;7.03;4.68;;;;;;;;;;4977264;28;20517;-81
2023/05/29 12:07:57;;;;;;;5.47;3.58;;;;;;;;;;4974076;28;20045;-81
2023/05/29 12:10:24;;;;;;;8.07;4.10;;;;;;;;;;4975271;28;20501;-81
2023/05/29 12:12:54;;;;;;;7.20;4.20;;;;;;;;;;4992833;28;20428;-80
2023/05/29 12:15:21;;;;;;;5.95;4.10;;;;;;;;;;4975999;28;20105;-81
2023/05/29 12:17:48;;;;;;;5.47;3.97;;;;;;;;;;4977725;28;20026;-81
2023/05/29 12:20:14;;;;;;;7.53;4.20;;;;;;;;;;4978719;28;20058;-81
2023/05/29 12:22:41;;;;;;;6.88;3.97;;;;;;;;;;4978113;28;20534;-81
2023/05/29 12:25:20;;;;;;;4.80;3.85;;;;;;;;;;4973607;28;20029;-80
2023/05/29 12:27:46;;;;;;;4.07;3.72;;;;;;;;;;4977706;28;20073;-80
2023/05/29 12:30:30;;;;;;;7.05;3.33;;;;;;;;;;4965659;28;20035;-80
2023/05/29 12:32:56;;;;;;;5.80;4.07;;;;;;;;;;4973397;28;20054;-81
2023/05/29 12:35:25;;;;;;;20.63;4.32;;;;;;;;;;4977608;28;20039;-80
2023/05/29 12:37:57;;;;;;;7.93;4.15;;;;;;;;;;4977202;28;20038;-80
2023/05/29 12:40:27;;;;;;;5.60;3.70;;;;;;;;;;4978057;28;20122;-81
2023/05/29 12:43:11;;;;;;;8.07;3.95;;;;;;;;;;4976764;28;20086;-81
2023/05/29 12:45:36;;;;;;;7.35;3.47;;;;;;;;;;4976510;28;20037;-81
2023/05/29 12:48:03;;;;;;;4.90;3.90;;;;;;;;;;4978554;28;20050;-80
2023/05/29 12:50:30;;;;;;;8.65;4.03;;;;;;;;;;4977759;28;20162;-81
2023/05/29 12:53:04;;;;;;;5.20;3.50;;;;;;;;;;4976162;28;20039;-81
2023/05/29 12:55:33;;;;;;;;;;;;;;;;;;4977583;28;20085;-81
2023/05/29 12:57:59;;;;;;;5.28;3.53;;;;;;;;;;5001260;28;19918;-80
2023/05/29 13:00:24;;;;;;;6.43;3.90;;;;;;;;;;4976436;28;20664;-81
2023/05/29 13:02:50;;;;;;;10.23;3.75;;;;;;;;;;4977539;28;20031;-80
2023/05/29 13:05:18;;;;;;;8.10;4.18;;;;;;;;;;4977259;28;20035;-81
2023/05/29 13:07:44;;;;;;;5.60;3.80;;;;;;;;;;4977151;28;20034;-80
2023/05/29 13:10:09;;;;;;;6.22;3.70;;;;;;;;;;4977011;28;20058;-81
2023/05/29 13:12:35;;;;;;;5.78;3.70;;;;;;;;;;4977590;28;20035;-80
2023/05/29 13:15:00;;;;;;;7.18;3.83;;;;;;;;;;4978316;28;20041;-81
2023/05/29 13:17:26;;;;;;;5.78;3.67;;;;;;;;;;4981040;28;20126;-80
2023/05/29 13:19:51;;;;;;;8.65;4.50;;;;;;;;;;4981125;28;20031;-81
2023/05/29 13:22:17;;;;;;;16.38;4.32;;;;;;;;;;4981124;28;20042;-81
2023/05/29 13:24:42;;;;;;;6.97;4.15;;;;;;;;;;4980339;28;20096;-82
2023/05/29 13:27:08;;;;;;;9.90;3.88;;;;;;;;;;4978031;28;20022;-80
2023/05/29 13:29:33;;;;;;;4.75;4.00;;;;;;;;;;4977558;28;20046;-81
2023/05/29 13:32:00;;;;;;;4.15;3.42;;;;;;;;;;4977817;28;20046;-81
2023/05/29 13:34:28;;;;;;;7.30;3.85;;;;;;;;;;4976367;28;20043;-81
2023/05/29 13:36:56;;;;;;;5.75;3.85;;;;;;;;;;4977669;28;20035;-81
2023/05/29 13:39:22;;;;;;;7.82;4.15;;;;;;;;;;4979369;28;20026;-83
2023/05/29 13:41:47;;;;;;;7.97;4.10;;;;;;;;;;4979277;28;20033;-79
2023/05/29 13:44:12;;;;;;;7.25;4.30;;;;;;;;;;4975742;28;20138;-81
2023/05/29 13:46:38;;;;;;;6.88;4.20;;;;;;;;;;4978673;28;20039;-83
2023/05/29 13:49:03;;;;;;;6.22;3.63;;;;;;;;;;4976494;28;20095;-82
2023/05/29 13:51:28;;;;;;;11.57;3.67;;;;;;;;;;4977248;28;20130;-83
2023/05/29 13:53:54;;;;;;;4.80;3.70;;;;;;;;;;4978267;28;20030;-83
2023/05/29 13:56:19;;;;;;;7.63;3.92;;;;;;;;;;4975797;28;20039;-84
2023/05/29 13:58:44;;;;;;;6.68;4.13;;;;;;;;;;4977010;28;20034;-83
2023/05/29 14:01:10;;;;;;;10.27;4.10;;;;;;;;;;4972924;28;20111;-81
2023/05/29 14:03:35;;;;;;;6.97;4.07;;;;;;;;;;4979210;28;20125;-83
2023/05/29 14:06:02;;;;;;;8.43;4.65;;;;;;;;;;4979817;28;20058;-82
2023/05/29 14:08:28;;;;;;;6.07;3.53;;;;;;;;;;4969406;28;20047;-83
2023/05/29 14:10:53;;;;;;;6.00;3.17;;;;;;;;;;4973262;28;20114;-80
2023/05/29 14:13:18;;;;;;;9.90;4.10;;;;;;;;;;4970414;28;20043;-81
2023/05/29 14:15:43;;;;;;;6.97;3.70;;;;;;;;;;4974690;28;20045;-80
2023/05/29 14:18:09;;;;;;;7.05;3.40;;;;;;;;;;4977044;28;20026;-80
2023/05/29 14:20:34;;;;;;;5.78;3.50;;;;;;;;;;4983582;28;20029;-83
2023/05/29 14:22:59;;;;;;;4.50;3.65;;;;;;;;;;4978126;28;20034;-82
2023/05/29 14:25:25;;;;;;;5.00;3.45;;;;;;;;;;4976109;28;20089;-83
2023/05/29 14:27:51;;;;;;;5.60;3.60;;;;;;;;;;4976933;28;20920;-83
2023/05/29 14:30:17;;;;;;;5.53;3.42;;;;;;;;;;4977045;28;20049;-82
2023/05/29 14:32:43;;;;;;;7.10;3.63;;;;;;;;;;4976009;28;20129;-82
2023/05/29 14:35:09;;;;;;;8.02;3.88;;;;;;;;;;4976098;28;20035;-82
2023/05/29 14:37:35;;;;;;;6.97;3.30;;;;;;;;;;4989700;28;20520;-83